Time;durP1;ratioP1;P1;durP2;ratioP2;P2;SDS_P1;SDS_P2;PMS_P1;PMS_P2;Temp;Humidity;BMP_temperature;BMP_pressure;BME280_temperature;BME280_humidity;BME280_pressure;Samples;Min_cycle;Max_cycle;Signal;HPM_P1;HPM_P2
2021/04/19 00:01:43;;;;;;;30.33;13.63;;;8.40;99.90;;;;;;4949401;28;20043;-66
2021/04/19 00:04:10;;;;;;;28.50;13.38;;;8.40;99.90;;;;;;4920950;28;20024;-67
2021/04/19 00:06:35;;;;;;;27.25;13.07;;;8.30;99.90;;;;;;4929012;28;20102;-68
2021/04/19 00:09:02;;;;;;;27.83;12.13;;;8.30;99.90;;;;;;4931602;28;20113;-67
2021/04/19 00:11:28;;;;;;;30.13;13.27;;;8.30;99.90;;;;;;4929241;28;20449;-67
2021/04/19 00:13:53;;;;;;;35.38;13.75;;;8.30;99.90;;;;;;4930904;28;20040;-67
2021/04/19 00:16:19;;;;;;;30.63;12.75;;;8.30;99.90;;;;;;4928559;28;20146;-66
2021/04/19 00:18:44;;;;;;;24.25;13.45;;;8.20;99.90;;;;;;4927098;28;20028;-67
2021/04/19 00:21:10;;;;;;;27.27;12.55;;;8.20;99.90;;;;;;4931952;28;20477;-68
2021/04/19 00:23:36;;;;;;;26.83;14.02;;;8.20;99.90;;;;;;4929322;28;20545;-69
2021/04/19 00:26:01;;;;;;;31.15;14.30;;;8.20;99.90;;;;;;4936726;28;20024;-68
2021/04/19 00:28:28;;;;;;;35.45;14.18;;;8.20;99.90;;;;;;4941866;28;20043;-68
2021/04/19 00:30:54;;;;;;;34.35;12.93;;;8.20;99.90;;;;;;4939558;28;20022;-67
2021/04/19 00:33:20;;;;;;;29.17;13.43;;;8.20;99.90;;;;;;4940930;28;20028;-66
2021/04/19 00:35:45;;;;;;;30.63;13.20;;;8.20;99.90;;;;;;4950350;28;20089;-67
2021/04/19 00:38:11;;;;;;;31.33;13.23;;;8.20;99.90;;;;;;4945623;28;20770;-67
2021/04/19 00:40:38;;;;;;;33.15;13.80;;;8.20;99.90;;;;;;4928945;28;20105;-68
2021/04/19 00:43:04;;;;;;;27.02;12.63;;;8.20;99.90;;;;;;4927990;28;20107;-68
2021/04/19 00:45:30;;;;;;;30.40;13.02;;;8.20;99.90;;;;;;4995156;28;20326;-66
2021/04/19 00:47:56;;;;;;;24.17;11.88;;;8.20;99.90;;;;;;4929308;28;20521;-69
2021/04/19 00:50:27;;;;;;;28.25;13.00;;;8.20;99.90;;;;;;4979540;28;20111;-67
2021/04/19 00:52:54;;;;;;;29.92;11.45;;;8.20;99.90;;;;;;4932486;28;20090;-65
2021/04/19 00:55:20;;;;;;;24.30;11.73;;;8.20;99.90;;;;;;4930108;28;20127;-68
2021/04/19 00:57:46;;;;;;;22.65;10.82;;;8.30;99.90;;;;;;4928184;28;20020;-68
2021/04/19 01:00:20;;;;;;;30.38;12.43;;;8.20;99.90;;;;;;5014945;28;20044;-66
2021/04/19 01:02:46;;;;;;;24.65;11.60;;;8.20;99.90;;;;;;5032592;28;20055;-66
2021/04/19 01:05:18;;;;;;;22.35;11.40;;;8.20;99.90;;;;;;4981961;28;20016;-67
2021/04/19 01:07:44;;;;;;;31.27;12.48;;;8.10;99.90;;;;;;4957498;28;20027;-68
2021/04/19 01:10:10;;;;;;;27.33;12.52;;;8.10;99.90;;;;;;5023604;28;20131;-68
2021/04/19 01:12:36;;;;;;;33.78;12.32;;;8.10;99.90;;;;;;4960567;28;20027;-67
2021/04/19 01:15:02;;;;;;;24.45;11.52;;;8.10;99.90;;;;;;5011267;28;20154;-67
2021/04/19 01:17:28;;;;;;;22.73;11.93;;;8.10;99.90;;;;;;4933323;28;20036;-66
2021/04/19 01:19:54;;;;;;;29.13;11.77;;;8.10;99.90;;;;;;4931470;28;20210;-67
2021/04/19 01:22:19;;;;;;;27.90;12.60;;;8.10;99.90;;;;;;4926228;28;20414;-67
2021/04/19 01:24:45;;;;;;;22.00;12.20;;;8.10;99.90;;;;;;4952132;28;20036;-65
2021/04/19 01:27:11;;;;;;;29.52;12.68;;;8.00;99.90;;;;;;4927445;28;20028;-68
2021/04/19 01:29:37;;;;;;;26.15;14.30;;;8.00;99.90;;;;;;4941480;28;20430;-66
2021/04/19 01:32:03;;;;;;;29.55;12.95;;;8.00;99.90;;;;;;4925853;28;20039;-69
2021/04/19 01:34:29;;;;;;;27.05;14.27;;;7.90;99.90;;;;;;4935146;28;20028;-67
2021/04/19 01:36:54;;;;;;;27.33;13.98;;;7.90;99.90;;;;;;4918990;28;20031;-65
2021/04/19 01:39:20;;;;;;;33.17;15.35;;;7.80;99.90;;;;;;4915831;28;20434;-67
2021/04/19 01:41:47;;;;;;;40.25;17.98;;;7.80;99.90;;;;;;4912118;28;20063;-66
2021/04/19 01:44:13;;;;;;;30.42;17.23;;;7.70;99.90;;;;;;4927526;28;20612;-67
2021/04/19 01:46:40;;;;;;;36.53;17.08;;;7.70;99.90;;;;;;4922531;29;20036;-67
2021/04/19 01:49:17;;;;;;;39.45;18.40;;;7.60;99.90;;;;;;4937498;28;20036;-66
2021/04/19 01:51:44;;;;;;;39.28;18.85;;;7.60;99.90;;;;;;4932681;28;20028;-67
2021/04/19 01:54:10;;;;;;;44.42;19.42;;;7.50;99.90;;;;;;4926152;28;20024;-66
2021/04/19 01:56:36;;;;;;;40.25;19.65;;;7.50;99.90;;;;;;4928694;28;20123;-67
2021/04/19 01:59:04;;;;;;;41.08;20.38;;;7.50;99.90;;;;;;4937401;28;20087;-68
2021/04/19 02:01:31;;;;;;;37.55;20.35;;;7.50;99.90;;;;;;4920998;28;20039;-66
2021/04/19 02:04:11;;;;;;;38.70;20.50;;;7.50;99.90;;;;;;4941894;28;20102;-66
2021/04/19 02:06:42;;;;;;;45.33;21.27;;;7.50;99.90;;;;;;4989880;28;20140;-65
2021/04/19 02:09:23;;;;;;;44.87;22.43;;;7.50;99.90;;;;;;4918635;28;20108;-67
2021/04/19 02:12:07;;;;;;;47.45;22.17;;;7.40;99.90;;;;;;4931820;28;20089;-67
2021/04/19 02:14:36;;;;;;;38.30;22.65;;;7.40;99.90;;;;;;4941301;28;20025;-67
2021/04/19 02:17:41;;;;;;;44.22;22.70;;;7.40;99.90;;;;;;4932514;28;20028;-67
2021/04/19 02:20:13;;;;;;;44.50;21.45;;;7.40;99.90;;;;;;4926507;28;20117;-67
2021/04/19 02:22:50;;;;;;;44.47;21.83;;;7.40;99.90;;;;;;4928743;29;20634;-67
2021/04/19 02:25:30;;;;;;;42.10;22.42;;;7.40;99.90;;;;;;4921340;28;20148;-68
2021/04/19 02:28:02;;;;;;;48.08;21.95;;;7.40;99.90;;;;;;4929799;28;20162;-65
2021/04/19 02:30:34;;;;;;;;;;;7.40;99.90;;;;;;4929602;28;20027;-67
2021/04/19 02:33:00;;;;;;;50.75;22.88;;;7.40;99.90;;;;;;4928546;28;20549;-66
2021/04/19 02:35:29;;;;;;;52.47;22.88;;;7.40;99.90;;;;;;4994163;28;20162;-67
2021/04/19 02:37:57;;;;;;;44.13;23.67;;;7.40;99.90;;;;;;4929190;29;20064;-68
2021/04/19 02:40:24;;;;;;;54.42;23.92;;;7.40;99.90;;;;;;4930947;28;20111;-66
2021/04/19 02:42:52;;;;;;;52.95;25.08;;;7.40;99.90;;;;;;4985739;28;20029;-67
2021/04/19 02:45:21;;;;;;;54.28;26.38;;;7.30;99.90;;;;;;4987040;28;20033;-69
2021/04/19 02:47:47;;;;;;;45.90;25.58;;;7.30;99.90;;;;;;4970337;28;20638;-67
2021/04/19 02:50:19;;;;;;;58.97;26.77;;;7.30;99.90;;;;;;4951348;28;20035;-66
2021/04/19 02:52:46;;;;;;;59.65;27.27;;;7.30;99.90;;;;;;4922263;28;20023;-66
2021/04/19 02:55:13;;;;;;;50.97;27.50;;;7.30;99.90;;;;;;4937300;28;20030;-68
2021/04/19 02:57:53;;;;;;;55.42;27.02;;;7.30;99.90;;;;;;4993845;28;20024;-68
2021/04/19 03:00:23;;;;;;;57.80;28.00;;;7.20;99.90;;;;;;4923991;28;20035;-67
2021/04/19 03:02:51;;;;;;;59.10;30.13;;;7.20;99.90;;;;;;4926706;28;20038;-68
2021/04/19 03:05:18;;;;;;;57.95;29.75;;;7.20;99.90;;;;;;4943312;28;20036;-66
2021/04/19 03:07:48;;;;;;;59.05;30.13;;;7.20;99.90;;;;;;4926254;28;20111;-70
2021/04/19 03:10:18;;;;;;;69.07;31.33;;;7.20;99.90;;;;;;4965416;28;20026;-67
2021/04/19 03:12:55;;;;;;;69.25;32.65;;;7.20;99.90;;;;;;4930210;28;20117;-68
2021/04/19 03:15:29;;;;;;;60.65;30.98;;;7.10;99.90;;;;;;4916449;28;20395;-68
2021/04/19 03:18:01;;;;;;;56.70;28.40;;;7.10;99.90;;;;;;4989661;28;20054;-70
2021/04/19 03:20:42;;;;;;;58.53;31.27;;;7.10;99.90;;;;;;4931353;28;20062;-71
2021/04/19 03:23:10;;;;;;;68.43;30.65;;;7.10;99.90;;;;;;4992995;28;20035;-68
2021/04/19 03:25:38;;;;;;;70.07;32.83;;;7.10;99.90;;;;;;4923785;28;20510;-72
2021/04/19 03:28:05;;;;;;;69.63;32.80;;;7.10;99.90;;;;;;4926988;28;20038;-67
2021/04/19 03:30:30;;;;;;;69.55;34.88;;;7.10;99.90;;;;;;4923654;28;20039;-67
2021/04/19 03:32:58;;;;;;;76.90;36.53;;;7.00;99.90;;;;;;4928149;29;20035;-65
2021/04/19 03:35:32;;;;;;;69.43;35.55;;;7.00;99.90;;;;;;4926935;28;20024;-66
2021/04/19 03:38:00;;;;;;;79.53;35.80;;;7.00;99.90;;;;;;4926064;28;20095;-68
2021/04/19 03:40:30;;;;;;;73.25;36.08;;;7.00;99.90;;;;;;4934399;28;20774;-66
2021/04/19 03:43:01;;;;;;;76.15;36.60;;;7.00;99.90;;;;;;4919094;28;20162;-66
2021/04/19 03:45:28;;;;;;;81.32;36.78;;;6.90;99.90;;;;;;4943821;28;20102;-67
2021/04/19 03:47:57;;;;;;;89.88;38.28;;;6.90;99.90;;;;;;4937426;28;20039;-67
2021/04/19 03:50:26;;;;;;;84.32;40.65;;;6.90;99.90;;;;;;4933175;28;20020;-67
2021/04/19 03:52:54;;;;;;;75.70;42.15;;;6.90;99.90;;;;;;4927977;28;20025;-67
2021/04/19 03:55:20;;;;;;;86.20;40.05;;;6.90;99.90;;;;;;4989805;28;20068;-68
2021/04/19 03:57:49;;;;;;;81.10;43.10;;;6.90;99.90;;;;;;4926904;28;20112;-67
2021/04/19 04:00:20;;;;;;;87.57;40.85;;;6.90;99.90;;;;;;4928855;28;20532;-68
2021/04/19 04:02:54;;;;;;;81.07;38.30;;;6.90;99.90;;;;;;4944352;29;20070;-66
2021/04/19 04:05:20;;;;;;;70.50;36.88;;;6.90;99.90;;;;;;5007008;28;20115;-68
2021/04/19 04:07:48;;;;;;;77.07;37.92;;;6.90;99.90;;;;;;4962892;28;20036;-68
2021/04/19 04:10:15;;;;;;;91.78;40.85;;;6.90;99.90;;;;;;4934577;28;20082;-67
2021/04/19 04:12:41;;;;;;;79.82;38.00;;;6.90;99.90;;;;;;4938175;28;20058;-66
2021/04/19 04:15:07;;;;;;;94.43;42.08;;;6.90;99.90;;;;;;4999813;28;20099;-68
2021/04/19 04:17:33;;;;;;;88.72;41.50;;;6.80;99.90;;;;;;4934674;28;20043;-66
2021/04/19 04:19:59;;;;;;;88.95;43.53;;;6.80;99.90;;;;;;4963020;28;20028;-67
2021/04/19 04:22:25;;;;;;;97.35;43.58;;;6.80;99.90;;;;;;4943408;28;20059;-66
2021/04/19 04:24:51;;;;;;;97.45;45.08;;;6.70;99.90;;;;;;4928752;28;20693;-65
2021/04/19 04:27:17;;;;;;;104.30;46.90;;;6.80;99.90;;;;;;4930476;28;20043;-66
2021/04/19 04:29:44;;;;;;;104.63;48.42;;;6.70;99.90;;;;;;4928383;28;20035;-66
2021/04/19 04:32:12;;;;;;;104.53;47.85;;;6.70;99.90;;;;;;4971154;28;20038;-65
2021/04/19 04:34:39;;;;;;;108.75;48.25;;;6.70;99.90;;;;;;4977379;28;20444;-68
2021/04/19 04:37:07;;;;;;;101.63;47.30;;;6.70;99.90;;;;;;4954799;28;20067;-67
2021/04/19 04:39:32;;;;;;;102.45;47.10;;;6.70;99.90;;;;;;4932820;28;20032;-65
2021/04/19 04:41:58;;;;;;;107.40;50.38;;;6.70;99.90;;;;;;4954677;28;20060;-67
2021/04/19 04:44:39;;;;;;;99.43;49.10;;;6.70;99.90;;;;;;4932282;28;20032;-66
2021/04/19 04:47:22;;;;;;;106.93;50.33;;;6.70;99.90;;;;;;4930618;28;20070;-65
2021/04/19 04:50:16;;;;;;;115.13;52.03;;;6.60;99.90;;;;;;4920327;28;20515;-66
2021/04/19 04:52:55;;;;;;;113.45;52.22;;;6.60;99.90;;;;;;4928721;28;20468;-67
2021/04/19 04:55:23;;;;;;;115.05;52.47;;;6.60;99.90;;;;;;4990022;28;20036;-66
2021/04/19 04:57:49;;;;;;;116.90;52.03;;;6.60;99.90;;;;;;4927363;28;20028;-67
2021/04/19 05:00:17;;;;;;;124.53;54.45;;;6.60;99.90;;;;;;4919888;28;20051;-66
2021/04/19 05:02:46;;;;;;;121.15;54.78;;;6.60;99.90;;;;;;4989894;28;20042;-67
2021/04/19 05:05:14;;;;;;;121.82;54.13;;;6.60;99.90;;;;;;4925219;28;20024;-67
2021/04/19 05:07:41;;;;;;;123.63;54.17;;;6.60;99.90;;;;;;4929898;28;20020;-66
2021/04/19 05:10:09;;;;;;;122.20;51.67;;;6.60;99.90;;;;;;4929197;28;20058;-68
2021/04/19 05:12:36;;;;;;;130.88;53.25;;;6.60;99.90;;;;;;4966951;28;20047;-66
2021/04/19 05:15:09;;;;;;;135.85;54.15;;;6.60;99.90;;;;;;4967966;28;20093;-70
2021/04/19 05:17:36;;;;;;;135.52;54.50;;;6.60;99.90;;;;;;4923431;29;20023;-67
2021/04/19 05:20:02;;;;;;;140.40;56.17;;;6.60;99.90;;;;;;4916630;28;20057;-67
2021/04/19 05:22:28;;;;;;;161.48;57.33;;;6.60;99.90;;;;;;4927007;28;20267;-66
2021/04/19 05:24:53;;;;;;;141.40;54.38;;;6.60;99.90;;;;;;4918630;28;20027;-65
2021/04/19 05:27:19;;;;;;;156.88;57.10;;;6.60;99.90;;;;;;4921969;28;20034;-67
2021/04/19 05:29:45;;;;;;;162.05;57.63;;;6.60;99.90;;;;;;4922126;28;20023;-67
2021/04/19 05:32:13;;;;;;;160.80;58.70;;;6.60;99.90;;;;;;4919268;28;20099;-65
2021/04/19 05:34:39;;;;;;;160.52;59.15;;;6.60;99.90;;;;;;4922871;28;20047;-67
2021/04/19 05:37:06;;;;;;;146.60;55.45;;;6.60;99.90;;;;;;4950019;28;20085;-66
2021/04/19 05:39:33;;;;;;;159.70;57.75;;;6.60;99.90;;;;;;4971097;28;20039;-69
2021/04/19 05:42:00;;;;;;;159.30;57.97;;;6.70;99.90;;;;;;4992187;28;20024;-68
2021/04/19 05:44:26;;;;;;;146.20;55.13;;;6.70;99.90;;;;;;4958752;22;20035;-78
2021/04/19 05:46:54;;;;;;;150.07;54.70;;;6.70;99.90;;;;;;4977301;28;20019;-77
2021/04/19 05:49:20;;;;;;;139.05;53.15;;;6.70;99.90;;;;;;4981254;28;20022;-78
2021/04/19 05:51:57;;;;;;;134.70;51.28;;;6.80;99.90;;;;;;4959172;28;20095;-76
2021/04/19 05:54:31;;;;;;;129.32;50.95;;;6.80;99.90;;;;;;4970303;28;20026;-77
2021/04/19 05:57:28;;;;;;;138.30;52.10;;;6.80;99.90;;;;;;4981149;28;20015;-76
2021/04/19 06:00:03;;;;;;;154.52;51.40;;;6.80;99.90;;;;;;4953367;28;20037;-76
2021/04/19 06:02:34;;;;;;;144.27;49.25;;;6.80;99.90;;;;;;4998916;28;20447;-77
2021/04/19 06:05:09;;;;;;;127.57;48.33;;;6.80;99.90;;;;;;5023375;28;20023;-77
2021/04/19 06:07:47;;;;;;;138.65;47.70;;;6.80;99.90;;;;;;4959282;28;20008;-77
2021/04/19 06:10:15;;;;;;;136.18;49.78;;;6.90;99.90;;;;;;4980094;28;20031;-77
2021/04/19 06:12:49;;;;;;;136.88;50.88;;;6.90;99.90;;;;;;4956251;28;20023;-77
2021/04/19 06:15:17;;;;;;;127.85;48.05;;;7.00;99.90;;;;;;4958279;28;20027;-78
2021/04/19 06:17:49;;;;;;;141.85;52.75;;;7.00;99.90;;;;;;4959098;28;20023;-78
2021/04/19 06:20:22;;;;;;;131.57;46.40;;;7.00;99.90;;;;;;5012142;28;20031;-76
2021/04/19 06:23:03;;;;;;;123.97;46.17;;;7.10;99.90;;;;;;4979027;28;20050;-77
2021/04/19 06:25:30;;;;;;;112.80;45.63;;;7.20;99.90;;;;;;4979645;28;20023;-76
2021/04/19 06:28:23;;;;;;;102.25;44.90;;;7.20;99.90;;;;;;4974875;28;20031;-78
2021/04/19 06:31:03;;;;;;;101.55;39.97;;;7.30;99.90;;;;;;4975923;28;20138;-76
2021/04/19 06:33:34;;;;;;;92.13;38.03;;;7.30;99.90;;;;;;5005465;28;20026;-77
2021/04/19 06:36:03;;;;;;;82.53;37.37;;;7.40;99.90;;;;;;4973572;28;20045;-78
2021/04/19 06:38:29;;;;;;;86.85;36.70;;;7.40;99.90;;;;;;4972325;28;20035;-77
2021/04/19 06:40:55;;;;;;;83.63;36.35;;;7.50;99.90;;;;;;4958936;28;20031;-79
2021/04/19 06:43:21;;;;;;;71.05;34.50;;;7.50;99.90;;;;;;4976326;28;20043;-78
2021/04/19 06:45:49;;;;;;;76.68;33.10;;;7.50;99.90;;;;;;4969091;28;20031;-78
2021/04/19 06:48:15;;;;;;;73.35;31.67;;;7.50;99.90;;;;;;4955408;28;20090;-75
2021/04/19 06:50:44;;;;;;;80.78;33.17;;;7.60;99.90;;;;;;4976475;28;20034;-76
2021/04/19 06:53:13;;;;;;;70.50;30.55;;;7.60;99.90;;;;;;4961229;28;20019;-78
2021/04/19 06:55:39;;;;;;;68.55;29.55;;;7.60;99.90;;;;;;4957218;28;20023;-78
2021/04/19 06:58:05;;;;;;;73.32;29.17;;;7.70;99.90;;;;;;4958045;28;20091;-77
2021/04/19 07:00:32;;;;;;;66.63;28.10;;;7.80;99.90;;;;;;4984794;28;20077;-76
2021/04/19 07:03:05;;;;;;;67.82;29.15;;;7.90;99.90;;;;;;4970466;28;20079;-75
2021/04/19 07:05:38;;;;;;;60.88;27.67;;;8.00;99.90;;;;;;4983187;28;20036;-77
2021/04/19 07:08:15;;;;;;;64.28;30.33;;;7.90;99.90;;;;;;4985042;28;20015;-76
2021/04/19 07:10:44;;;;;;;74.93;29.75;;;8.00;99.90;;;;;;4975252;28;20033;-76
2021/04/19 07:13:11;;;;;;;51.85;25.77;;;7.90;99.90;;;;;;4974808;28;20430;-76
2021/04/19 07:15:40;;;;;;;59.50;27.90;;;8.00;99.90;;;;;;4976049;28;20037;-77
2021/04/19 07:18:08;;;;;;;54.92;26.23;;;8.00;99.90;;;;;;4947622;28;20087;-75
2021/04/19 07:20:34;;;;;;;59.72;25.42;;;8.00;99.90;;;;;;4966583;28;20030;-77
2021/04/19 07:23:01;;;;;;;55.13;24.73;;;8.20;99.90;;;;;;4970883;28;20050;-75
2021/04/19 07:25:33;;;;;;;56.42;26.33;;;8.30;99.90;;;;;;4961410;28;20020;-77
2021/04/19 07:27:59;;;;;;;;;;;8.20;99.90;;;;;;4961082;28;20019;-77
2021/04/19 07:30:32;;;;;;;50.45;25.17;;;8.20;99.90;;;;;;4976887;28;19906;-79
2021/04/19 07:33:00;;;;;;;54.00;23.50;;;8.10;99.90;;;;;;4970059;28;20023;-75
2021/04/19 07:35:34;;;;;;;46.00;24.63;;;8.30;99.90;;;;;;4976796;28;20024;-75
2021/04/19 07:38:00;;;;;;;55.10;23.83;;;8.40;99.90;;;;;;4946995;28;20024;-77
2021/04/19 07:40:32;;;;;;;48.00;24.92;;;8.30;99.90;;;;;;4982034;28;20588;-78
2021/04/19 07:43:16;;;;;;;63.08;25.95;;;8.30;99.90;;;;;;4965629;28;20023;-77
2021/04/19 07:45:57;;;;;;;56.50;25.33;;;8.20;99.90;;;;;;4967404;28;20046;-77
2021/04/19 07:48:54;;;;;;;61.22;26.25;;;8.10;99.90;;;;;;4952187;28;20027;-76
2021/04/19 07:51:25;;;;;;;51.67;25.65;;;8.10;99.90;;;;;;4949706;28;20329;-76
2021/04/19 07:54:12;;;;;;;52.35;24.35;;;8.10;99.90;;;;;;4976015;28;20023;-76
2021/04/19 07:56:59;;;;;;;55.08;25.20;;;8.20;99.90;;;;;;4961769;28;20046;-77
2021/04/19 07:59:36;;;;;;;56.05;25.67;;;8.20;99.90;;;;;;4973751;28;20008;-76
2021/04/19 08:02:09;;;;;;;53.72;25.33;;;8.20;99.90;;;;;;4964595;28;20034;-78
2021/04/19 08:04:45;;;;;;;56.85;25.63;;;8.20;99.90;;;;;;4952576;28;20042;-76
2021/04/19 08:07:26;;;;;;;51.58;25.70;;;8.20;99.90;;;;;;4965548;28;20106;-76
2021/04/19 08:09:58;;;;;;;54.63;26.10;;;8.40;99.90;;;;;;4968447;28;20027;-76
2021/04/19 08:12:39;;;;;;;56.17;26.17;;;8.60;99.90;;;;;;4947703;28;20071;-75
2021/04/19 08:15:14;;;;;;;52.65;26.77;;;8.30;99.90;;;;;;4952250;28;20031;-73
2021/04/19 08:17:40;;;;;;;60.95;27.20;;;8.30;99.90;;;;;;4954326;28;20045;-77
2021/04/19 08:20:09;;;;;;;50.47;26.92;;;8.30;99.90;;;;;;4965804;28;20030;-76
2021/04/19 08:22:37;;;;;;;62.90;28.60;;;8.50;99.90;;;;;;4988048;28;20069;-77
2021/04/19 08:25:17;;;;;;;62.47;28.83;;;8.40;99.90;;;;;;5004148;28;20016;-76
2021/04/19 08:27:59;;;;;;;52.95;26.67;;;8.40;99.90;;;;;;5006492;28;20039;-78
2021/04/19 08:30:28;;;;;;;61.50;28.07;;;8.50;99.90;;;;;;4947883;28;20094;-77
2021/04/19 08:33:10;;;;;;;71.10;30.50;;;8.50;99.90;;;;;;4968624;28;20764;-77
2021/04/19 08:35:48;;;;;;;56.38;29.08;;;8.60;99.90;;;;;;4978429;28;20027;-75
2021/04/19 08:38:19;;;;;;;66.70;31.40;;;8.60;99.90;;;;;;4989975;28;20035;-76
2021/04/19 08:41:10;;;;;;;59.60;30.08;;;8.50;99.90;;;;;;5017910;28;20005;-77
2021/04/19 08:43:41;;;;;;;54.58;27.73;;;8.60;99.90;;;;;;4991460;28;20091;-76
2021/04/19 08:46:22;;;;;;;50.67;29.75;;;8.70;99.90;;;;;;5024069;28;20027;-76
2021/04/19 08:48:51;;;;;;;61.88;30.17;;;8.80;99.90;;;;;;4963266;28;19999;-75
2021/04/19 08:51:27;;;;;;;57.13;30.27;;;8.90;99.90;;;;;;4984929;28;20011;-76
2021/04/19 08:53:53;;;;;;;52.47;28.17;;;8.90;99.90;;;;;;4954762;28;20000;-74
2021/04/19 08:56:18;;;;;;;53.67;28.45;;;9.10;99.90;;;;;;4967520;28;20054;-77
2021/04/19 08:58:44;;;;;;;52.65;28.52;;;9.10;99.90;;;;;;4965591;28;20011;-77
2021/04/19 09:01:11;;;;;;;51.35;29.63;;;9.10;99.90;;;;;;4957343;28;20031;-75
2021/04/19 09:03:37;;;;;;;47.85;27.20;;;9.20;99.90;;;;;;4971279;28;20023;-74
2021/04/19 09:06:24;;;;;;;47.00;24.83;;;9.20;99.90;;;;;;4978486;28;20019;-76
2021/04/19 09:08:50;;;;;;;50.28;25.77;;;9.50;99.90;;;;;;4985367;28;20533;-74
2021/04/19 09:11:27;;;;;;;51.10;26.45;;;9.60;99.90;;;;;;4964936;28;20080;-78
2021/04/19 09:14:03;;;;;;;43.35;24.95;;;9.80;99.90;;;;;;4943831;28;20023;-76
2021/04/19 09:16:37;;;;;;;51.53;26.17;;;9.80;99.90;;;;;;4957025;28;20035;-77
2021/04/19 09:19:05;;;;;;;48.33;27.05;;;9.80;99.90;;;;;;4971314;28;20027;-76
2021/04/19 09:21:50;;;;;;;47.88;26.98;;;9.60;99.90;;;;;;4969527;28;20066;-75
2021/04/19 09:24:25;;;;;;;50.95;25.92;;;9.90;99.90;;;;;;4945168;28;20041;-75
2021/04/19 09:26:56;;;;;;;48.00;25.70;;;10.00;99.90;;;;;;4954096;28;20015;-74
2021/04/19 09:29:25;;;;;;;48.25;26.00;;;10.30;99.90;;;;;;4957221;28;20024;-77
2021/04/19 09:32:17;;;;;;;45.70;25.98;;;10.30;99.90;;;;;;4962722;28;20019;-76
2021/04/19 09:34:53;;;;;;;47.08;27.17;;;10.60;99.90;;;;;;4979999;28;20026;-74
2021/04/19 09:37:53;;;;;;;43.80;23.90;;;10.30;99.90;;;;;;4970755;28;20042;-78
2021/04/19 09:40:23;;;;;;;42.85;25.35;;;10.50;99.90;;;;;;4959533;28;20031;-75
2021/04/19 09:42:55;;;;;;;41.22;23.05;;;10.80;99.90;;;;;;5028900;28;20065;-73
2021/04/19 09:45:45;;;;;;;41.53;24.73;;;10.80;99.90;;;;;;4971554;28;20035;-76
2021/04/19 09:48:31;;;;;;;43.85;24.73;;;10.80;99.90;;;;;;4962720;28;20030;-77
2021/04/19 09:51:04;;;;;;;47.42;26.10;;;11.20;99.90;;;;;;4945975;28;20350;-77
2021/04/19 09:53:30;;;;;;;43.45;24.65;;;10.90;99.90;;;;;;4960085;28;20028;-79
2021/04/19 09:55:58;;;;;;;53.08;29.15;;;11.00;99.90;;;;;;4949510;28;20072;-76
2021/04/19 09:58:28;;;;;;;48.30;26.85;;;10.60;99.90;;;;;;4964970;28;20031;-78
2021/04/19 10:00:55;;;;;;;42.42;27.15;;;10.60;99.90;;;;;;4962269;28;20027;-76
2021/04/19 10:03:21;;;;;;;57.55;26.95;;;10.70;99.90;;;;;;4989132;28;20097;-74
2021/04/19 10:05:51;;;;;;;51.10;27.58;;;10.80;99.90;;;;;;4978393;28;20042;-77
2021/04/19 10:08:18;;;;;;;50.50;27.42;;;11.00;99.90;;;;;;4970070;28;20070;-76
2021/04/19 10:10:49;;;;;;;43.67;26.13;;;11.10;99.90;;;;;;4986475;28;20045;-78
2021/04/19 10:13:37;;;;;;;41.72;25.50;;;11.20;99.90;;;;;;4974215;28;20022;-76
2021/04/19 10:16:11;;;;;;;46.00;27.38;;;11.00;99.90;;;;;;4977450;28;20610;-76
2021/04/19 10:18:41;;;;;;;47.20;27.08;;;11.00;99.90;;;;;;4969836;28;20021;-77
2021/04/19 10:21:08;;;;;;;47.78;27.17;;;11.00;99.90;;;;;;4974154;28;20034;-76
2021/04/19 10:23:41;;;;;;;50.28;28.10;;;11.20;99.90;;;;;;4975284;28;20058;-76
2021/04/19 10:26:08;;;;;;;46.63;27.13;;;11.30;99.90;;;;;;4950771;28;20035;-76
2021/04/19 10:28:42;;;;;;;43.40;26.05;;;11.70;99.90;;;;;;4990238;28;20015;-77
2021/04/19 10:31:16;;;;;;;42.40;25.75;;;12.00;99.90;;;;;;4993273;28;20086;-76
2021/04/19 10:33:48;;;;;;;41.80;25.20;;;11.60;99.90;;;;;;4984616;28;20027;-75
2021/04/19 10:36:23;;;;;;;40.28;24.83;;;11.90;99.90;;;;;;4995196;28;20026;-75
2021/04/19 10:38:57;;;;;;;40.95;23.15;;;12.00;99.90;;;;;;4984355;28;20027;-77
2021/04/19 10:41:46;;;;;;;35.92;24.10;;;12.40;99.90;;;;;;4982387;28;20030;-76
2021/04/19 10:44:15;;;;;;;41.22;24.58;;;12.60;99.90;;;;;;4986566;28;20011;-77
2021/04/19 10:46:44;;;;;;;34.85;21.90;;;12.60;99.90;;;;;;4978619;28;20025;-76
2021/04/19 10:49:22;;;;;;;35.63;21.83;;;13.20;99.90;;;;;;4966726;28;20027;-76
2021/04/19 10:51:55;;;;;;;34.72;21.65;;;13.70;99.90;;;;;;4978374;28;20019;-77
2021/04/19 10:54:39;;;;;;;35.90;20.73;;;14.10;99.90;;;;;;4980359;28;20055;-76
2021/04/19 10:57:23;;;;;;;33.08;20.13;;;14.20;99.90;;;;;;4979718;28;20016;-78
2021/04/19 10:59:52;;;;;;;33.83;19.95;;;13.40;99.90;;;;;;4985213;28;20120;-77
2021/04/19 11:02:23;;;;;;;33.63;20.17;;;13.20;99.90;;;;;;4981403;28;20027;-76
2021/04/19 11:04:49;;;;;;;30.20;18.83;;;13.00;99.90;;;;;;4969255;28;20115;-76
2021/04/19 11:07:35;;;;;;;29.25;17.38;;;13.10;99.90;;;;;;4959568;28;20043;-78
2021/04/19 11:10:26;;;;;;;27.08;16.63;;;13.40;99.90;;;;;;4976306;28;20026;-79
2021/04/19 11:13:10;;;;;;;30.38;17.23;;;13.20;99.90;;;;;;4971922;28;20035;-77
2021/04/19 11:15:38;;;;;;;28.88;17.38;;;13.10;99.90;;;;;;4960412;28;20091;-78
2021/04/19 11:18:22;;;;;;;28.80;16.40;;;13.10;99.90;;;;;;4961703;28;20034;-76
2021/04/19 11:20:56;;;;;;;25.77;15.93;;;13.10;99.90;;;;;;4984659;28;20057;-76
2021/04/19 11:23:29;;;;;;;26.17;16.67;;;12.90;99.90;;;;;;4983584;28;20039;-73
2021/04/19 11:26:01;;;;;;;23.15;15.98;;;12.60;99.90;;;;;;4991505;28;20090;-78
2021/04/19 11:28:42;;;;;;;22.88;15.20;;;12.60;99.90;;;;;;4988862;28;20035;-77
2021/04/19 11:31:19;;;;;;;31.52;16.30;;;12.60;99.90;;;;;;4983689;28;20016;-76
2021/04/19 11:34:04;;;;;;;23.13;15.88;;;12.60;99.90;;;;;;4985544;28;20016;-76
2021/04/19 11:36:40;;;;;;;28.08;18.15;;;12.90;99.90;;;;;;4985412;28;20016;-78
2021/04/19 11:39:17;;;;;;;26.98;17.58;;;13.00;99.90;;;;;;4976296;28;20020;-76
2021/04/19 11:41:44;;;;;;;25.73;17.10;;;12.90;99.90;;;;;;4963253;28;20038;-79
2021/04/19 11:44:10;;;;;;;25.50;17.98;;;13.00;99.90;;;;;;4980856;28;20038;-75
2021/04/19 11:46:43;;;;;;;31.88;19.70;;;13.00;99.90;;;;;;4988037;28;20045;-77
2021/04/19 11:49:13;;;;;;;;;;;12.90;99.90;;;;;;4976590;28;20046;-78
2021/04/19 11:51:41;;;;;;;30.15;19.38;;;12.60;99.90;;;;;;4977784;28;19894;-77
2021/04/19 11:54:10;;;;;;;30.05;19.52;;;12.60;99.90;;;;;;4971907;28;20081;-76
2021/04/19 11:56:39;;;;;;;30.65;20.27;;;12.60;99.90;;;;;;4968002;28;20031;-77
2021/04/19 11:59:07;;;;;;;35.58;20.52;;;12.80;99.90;;;;;;5047443;28;20072;-76
2021/04/19 12:01:34;;;;;;;35.53;21.70;;;12.90;99.90;;;;;;4985193;28;20066;-75
2021/04/19 12:04:03;;;;;;;36.15;22.80;;;13.00;99.90;;;;;;4973048;28;20007;-76
2021/04/19 12:06:29;;;;;;;29.23;20.98;;;13.10;99.90;;;;;;4993664;28;20063;-75
2021/04/19 12:08:55;;;;;;;36.03;21.05;;;13.10;99.90;;;;;;4966417;28;20122;-76
2021/04/19 12:11:22;;;;;;;36.45;22.25;;;13.20;99.90;;;;;;4978895;28;20032;-77
2021/04/19 12:13:59;;;;;;;31.27;19.33;;;13.30;99.90;;;;;;4977239;28;20029;-76
2021/04/19 12:16:25;;;;;;;29.02;17.58;;;13.80;99.90;;;;;;5034827;28;20004;-76
2021/04/19 12:18:51;;;;;;;27.05;15.60;;;14.20;99.90;;;;;;4959666;28;20023;-75
2021/04/19 12:21:23;;;;;;;20.17;14.80;;;13.90;99.90;;;;;;5001072;28;20088;-75
2021/04/19 12:23:48;;;;;;;23.33;15.57;;;13.50;99.90;;;;;;5011254;28;20038;-76
2021/04/19 12:26:19;;;;;;;25.02;15.75;;;13.40;99.90;;;;;;5024938;28;20025;-76
2021/04/19 12:28:45;;;;;;;21.45;13.95;;;13.20;99.90;;;;;;4993936;28;20011;-75
2021/04/19 12:31:22;;;;;;;22.88;13.50;;;13.10;99.90;;;;;;4984006;28;20008;-78
2021/04/19 12:33:49;;;;;;;20.17;14.60;;;13.10;99.90;;;;;;4989049;28;20090;-76
2021/04/19 12:36:16;;;;;;;22.65;14.82;;;13.10;99.90;;;;;;4983968;28;20320;-75
2021/04/19 12:38:48;;;;;;;21.45;14.15;;;13.00;99.90;;;;;;5031329;28;20061;-76
2021/04/19 12:41:17;;;;;;;26.00;13.83;;;12.90;99.90;;;;;;5016627;28;20091;-78
2021/04/19 12:43:43;;;;;;;18.90;12.15;;;12.90;99.90;;;;;;4978338;28;20027;-77
2021/04/19 12:46:09;;;;;;;19.05;12.50;;;12.90;99.90;;;;;;4970173;28;20037;-76
2021/04/19 12:48:35;;;;;;;17.02;12.38;;;13.20;99.90;;;;;;4982332;28;20016;-76
2021/04/19 12:51:01;;;;;;;17.83;11.27;;;14.00;99.90;;;;;;4970590;28;20038;-76
2021/04/19 12:53:27;;;;;;;17.00;11.93;;;14.50;99.90;;;;;;4991578;28;20044;-77